createdAt,value
2023-03-30T00:00:46.869Z,97936.81
2023-03-30T00:05:52.128Z,97934.84
2023-03-30T00:11:17.789Z,97933.72
2023-03-30T00:16:20.866Z,97926.56
2023-03-30T00:21:23.237Z,97921.06
2023-03-30T00:26:25.100Z,97903.38
2023-03-30T00:31:27.604Z,97886.84
2023-03-30T00:36:30.618Z,97860.94
2023-03-30T00:41:34.033Z,97840.19
2023-03-30T00:46:36.131Z,97829.47
2023-03-30T00:51:40.497Z,97820.09
2023-03-30T00:56:42.761Z,97815.06
2023-03-30T01:01:50.230Z,97849.75
2023-03-30T01:06:55.536Z,97850.56
2023-03-30T01:11:58.159Z,97835.16
2023-03-30T01:17:05.702Z,97829.81
2023-03-30T01:22:45.296Z,97792.53
2023-03-30T01:27:55.691Z,97765.97
2023-03-30T01:33:37.349Z,97752.38
2023-03-30T01:38:56.097Z,97742.69
2023-03-30T01:44:41.890Z,97723.81
2023-03-30T01:50:02.164Z,97719.19
2023-03-30T01:55:14.299Z,97727.81
2023-03-30T02:00:20.627Z,97721.50
2023-03-30T02:05:23.820Z,97733.19
2023-03-30T02:10:30.687Z,97741.47
2023-03-30T02:15:38.846Z,97730.31
2023-03-30T02:20:40.708Z,97726.59
2023-03-30T02:25:44.612Z,97716.91
2023-03-30T02:30:47.672Z,97708.22
2023-03-30T02:36:02.122Z,97699.50
2023-03-30T02:41:19.179Z,97692.56
2023-03-30T02:46:31.291Z,97693.56
2023-03-30T02:51:47.154Z,97692.28
2023-03-30T02:57:24.026Z,97673.38
2023-03-30T03:02:37.460Z,97673.06
2023-03-30T03:07:54.064Z,97666.63
2023-03-30T03:12:59.116Z,97626.69
2023-03-30T03:18:01.121Z,97618.94
2023-03-30T03:23:03.614Z,97635.13
2023-03-30T03:28:13.538Z,97631.44
2023-03-30T03:33:22.139Z,97621.75
2023-03-30T03:38:49.877Z,97616.09
2023-03-30T03:43:52.452Z,97605.75
2023-03-30T03:48:54.877Z,97596.56
2023-03-30T03:53:56.785Z,97608.69
2023-03-30T03:58:59.363Z,97608.69
2023-03-30T04:04:01.269Z,97605.13
2023-03-30T04:09:03.331Z,97604.47
2023-03-30T04:14:31.217Z,97586.72
2023-03-30T04:19:56.645Z,97606.75
2023-03-30T04:25:19.172Z,97591.91
2023-03-30T04:30:24.952Z,97587.41
2023-03-30T04:35:27.197Z,97595.97
2023-03-30T04:41:02.647Z,97613.91
2023-03-30T04:46:19.837Z,97616.50
2023-03-30T04:51:37.827Z,97595.66
2023-03-30T04:56:51.867Z,97597.28
2023-03-30T05:02:18.907Z,97608.34
2023-03-30T05:07:30.721Z,97601.53
2023-03-30T05:12:42.212Z,97586.56
2023-03-30T05:17:49.965Z,97582.47
2023-03-30T05:23:17.694Z,97585.22
2023-03-30T05:28:40.460Z,97575.19
2023-03-30T05:34:11.714Z,97575.78
2023-03-30T05:39:16.432Z,97569.53
2023-03-30T05:44:37.082Z,97566.84
2023-03-30T05:49:57.704Z,97562.75
2023-03-30T05:55:05.027Z,97567.03
2023-03-30T06:00:26.372Z,97565.94
2023-03-30T06:05:40.032Z,97575.25
2023-03-30T06:10:42.574Z,97592.78
2023-03-30T06:15:47.449Z,97593.91
2023-03-30T06:20:54.766Z,97588.88
2023-03-30T06:26:01.555Z,97579.59
2023-03-30T06:31:09.781Z,97574.72
2023-03-30T06:36:14.485Z,97571.09
2023-03-30T06:41:18.086Z,97558.78
2023-03-30T06:46:23.104Z,97562.25
2023-03-30T06:51:26.129Z,97561.50
2023-03-30T06:56:28.708Z,97554.56
2023-03-30T07:02:01.261Z,97545.59
2023-03-30T07:07:21.984Z,97542.00
2023-03-30T07:12:24.259Z,97535.63
2023-03-30T07:17:28.207Z,97535.84
2023-03-30T07:22:30.504Z,97525.56
2023-03-30T07:27:32.602Z,97530.63
2023-03-30T07:32:34.973Z,97515.88
2023-03-30T07:37:40.174Z,97508.75
2023-03-30T07:42:42.306Z,97494.81
2023-03-30T07:47:44.856Z,97489.44
2023-03-30T07:52:46.769Z,97485.25
2023-03-30T07:57:49.672Z,97481.06
2023-03-30T08:02:52.084Z,97496.94
2023-03-30T08:07:55.430Z,97474.31
2023-03-30T08:13:04.729Z,97464.69
2023-03-30T08:18:08.502Z,97465.91
2023-03-30T08:23:13.731Z,97471.94
2023-03-30T08:28:15.609Z,97473.94
2023-03-30T08:33:18.106Z,97456.69
2023-03-30T08:38:20.009Z,97459.28
2023-03-30T08:43:25.973Z,97461.81
2023-03-30T08:48:32.435Z,97458.59
2023-03-30T08:53:34.787Z,97470.84
2023-03-30T08:58:49.684Z,97465.25
2023-03-30T09:04:06.583Z,97473.91
2023-03-30T09:09:13.637Z,97487.34
2023-03-30T09:14:41.952Z,97496.19
2023-03-30T09:19:57.380Z,97511.03
2023-03-30T09:24:59.906Z,97520.66
2023-03-30T09:30:16.025Z,97526.47
2023-03-30T09:35:25.003Z,97540.69
2023-03-30T09:40:58.462Z,97548.72
2023-03-30T09:46:05.286Z,97548.50
2023-03-30T09:51:22.978Z,97549.91
2023-03-30T09:56:39.021Z,97541.28
2023-03-30T10:01:42.670Z,97545.47
2023-03-30T10:06:48.417Z,97550.69
2023-03-30T10:11:52.893Z,97556.66
2023-03-30T10:16:56.213Z,97540.22
2023-03-30T10:21:59.969Z,97536.34
2023-03-30T10:27:09.996Z,97529.91
2023-03-30T10:32:15.789Z,97521.84
2023-03-30T10:37:34.663Z,97515.63
2023-03-30T10:42:37.149Z,97513.41
2023-03-30T10:47:53.074Z,97511.00
2023-03-30T10:53:00.858Z,97511.38
2023-03-30T10:58:45.160Z,97526.00
2023-03-30T11:03:54.017Z,97523.22
2023-03-30T11:08:59.237Z,97482.38
2023-03-30T11:14:07.297Z,97456.97
2023-03-30T11:19:23.125Z,97484.47
2023-03-30T11:24:27.856Z,97552.63
2023-03-30T11:29:44.894Z,97539.44
2023-03-30T11:35:01.870Z,97536.66
2023-03-30T11:40:28.646Z,97519.00
2023-03-30T11:45:45.852Z,97517.22
2023-03-30T11:51:14.149Z,97505.22
2023-03-30T11:56:34.388Z,97509.44
2023-03-30T12:01:57.176Z,97495.97
2023-03-30T12:07:01.607Z,97480.47
2023-03-30T12:12:16.182Z,97479.63
2023-03-30T12:17:50.259Z,97456.94
2023-03-30T12:23:17.294Z,97436.28
2023-03-30T12:28:29.823Z,97435.47
2023-03-30T12:33:49.781Z,97412.72
2023-03-30T12:39:02.396Z,97402.78
2023-03-30T12:44:51.545Z,97399.72
2023-03-30T12:49:56.161Z,97399.25
2023-03-30T12:54:57.942Z,97385.19
2023-03-30T13:00:29.372Z,97402.22
2023-03-30T13:05:36.498Z,97388.84
2023-03-30T13:10:42.286Z,97389.53
2023-03-30T13:15:51.014Z,97388.09
2023-03-30T13:20:55.867Z,97368.84
2023-03-30T13:25:57.745Z,97367.59
2023-03-30T13:31:16.775Z,97379.50
2023-03-30T13:36:24.985Z,97383.56
2023-03-30T13:41:45.535Z,97376.56
2023-03-30T13:47:01.620Z,97370.16
2023-03-30T13:52:10.004Z,97380.63
2023-03-30T13:57:19.408Z,97369.75
2023-03-30T14:02:23.174Z,97363.88
2023-03-30T14:07:25.763Z,97372.25
2023-03-30T14:12:27.749Z,97368.94
2023-03-30T14:17:29.865Z,97372.28
2023-03-30T14:22:41.208Z,97361.59
2023-03-30T14:27:43.362Z,97347.34
2023-03-30T14:32:45.783Z,97344.13
2023-03-30T14:37:52.209Z,97334.91
2023-03-30T14:42:55.099Z,97348.56
2023-03-30T14:47:57.198Z,97323.66
2023-03-30T14:53:00.641Z,97329.91
2023-03-30T14:58:03.461Z,97323.78
2023-03-30T15:03:06.402Z,97326.69
2023-03-30T15:08:20.204Z,97323.66
2023-03-30T15:13:31.943Z,97324.59
2023-03-30T15:18:36.526Z,97329.13
2023-03-30T15:23:41.883Z,97331.72
2023-03-30T15:28:51.579Z,97315.09
2023-03-30T15:33:56.051Z,97305.13
2023-03-30T15:38:59.129Z,97302.28
2023-03-30T15:44:21.505Z,97301.88
2023-03-30T15:49:39.545Z,97313.75
2023-03-30T15:54:44.731Z,97364.38
2023-03-30T15:59:53.429Z,97436.22
2023-03-30T16:04:55.392Z,97462.28
2023-03-30T16:09:57.289Z,97444.84
2023-03-30T16:14:59.288Z,97447.00
2023-03-30T16:20:01.332Z,97442.75
2023-03-30T16:25:03.912Z,97448.72
2023-03-30T16:30:37.566Z,97415.44
2023-03-30T16:35:40.062Z,97394.00
2023-03-30T16:40:48.893Z,97411.00
2023-03-30T16:45:51.665Z,97409.78
2023-03-30T16:50:56.880Z,97414.56
2023-03-30T16:55:58.918Z,97423.75
2023-03-30T17:01:04.485Z,97427.75
2023-03-30T17:06:07.769Z,97432.72
2023-03-30T17:11:10.976Z,97439.31
2023-03-30T17:16:14.757Z,97448.31
2023-03-30T17:21:16.840Z,97459.09
2023-03-30T17:26:19.561Z,97452.47
2023-03-30T17:31:22.360Z,97453.47
2023-03-30T17:36:26.786Z,97456.47
2023-03-30T17:41:28.911Z,97462.66
2023-03-30T17:46:32.535Z,97451.84
2023-03-30T17:51:34.461Z,97456.59
2023-03-30T17:56:36.296Z,97456.38
2023-03-30T18:01:39.827Z,97458.56
2023-03-30T18:06:41.941Z,97464.53
2023-03-30T18:11:44.396Z,97464.28
2023-03-30T18:16:46.256Z,97471.03
2023-03-30T18:21:48.144Z,97468.97
2023-03-30T18:26:50.048Z,97476.97
2023-03-30T18:31:52.015Z,97493.94
2023-03-30T18:36:53.796Z,97496.91
2023-03-30T18:41:55.908Z,97508.47
2023-03-30T18:46:57.669Z,97515.03
2023-03-30T18:51:59.435Z,97518.00
2023-03-30T18:57:01.433Z,97522.41
2023-03-30T19:02:03.332Z,97529.75
2023-03-30T19:07:05.919Z,97531.94
2023-03-30T19:12:12.458Z,97525.50
2023-03-30T19:17:15.804Z,97537.69
2023-03-30T19:22:17.592Z,97544.47
2023-03-30T19:27:19.386Z,97547.06
2023-03-30T19:32:21.563Z,97541.88
2023-03-30T19:37:23.768Z,97557.03
2023-03-30T19:42:26.787Z,97563.59
2023-03-30T19:47:33.552Z,97576.13
2023-03-30T19:52:35.540Z,97575.69
2023-03-30T19:57:38.136Z,97567.28
2023-03-30T20:02:41.365Z,97565.69
2023-03-30T20:07:45.481Z,97567.66
2023-03-30T20:12:49.566Z,97572.22
2023-03-30T20:17:56.534Z,97568.03
2023-03-30T20:22:59.649Z,97573.03
2023-03-30T20:28:01.490Z,97563.63
2023-03-30T20:33:08.159Z,97576.00
2023-03-30T20:38:11.115Z,97577.16
2023-03-30T20:43:12.985Z,97584.97
2023-03-30T20:48:27.743Z,97590.34
2023-03-30T20:53:30.892Z,97595.72
2023-03-30T20:58:32.705Z,97594.28
2023-03-30T21:03:35.514Z,97606.00
2023-03-30T21:08:37.300Z,97595.81
2023-03-30T21:13:39.142Z,97593.41
2023-03-30T21:18:41.315Z,97590.97
2023-03-30T21:23:44.282Z,97583.38
2023-03-30T21:28:46.202Z,97588.56
2023-03-30T21:33:48.102Z,97587.94
2023-03-30T21:38:50.104Z,97593.75
2023-03-30T21:43:52.220Z,97590.97
2023-03-30T21:48:54.661Z,97587.75
2023-03-30T21:53:57.954Z,97575.75
2023-03-30T21:58:59.893Z,97576.75
2023-03-30T22:04:03.239Z,97579.16
2023-03-30T22:09:06.552Z,97566.63
2023-03-30T22:14:08.487Z,97552.28
2023-03-30T22:19:10.306Z,97543.97
2023-03-30T22:24:12.171Z,97542.78
2023-03-30T22:29:14.076Z,97542.59
2023-03-30T22:34:16.360Z,97540.81
2023-03-30T22:39:18.378Z,97532.03
2023-03-30T22:44:20.717Z,97536.41
2023-03-30T22:49:24.814Z,97535.25
2023-03-30T22:54:26.705Z,97536.41
2023-03-30T22:59:29.859Z,97530.78
2023-03-30T23:04:31.689Z,97522.38
2023-03-30T23:09:33.842Z,97518.78
2023-03-30T23:14:37.964Z,97508.41
2023-03-30T23:19:40.323Z,97497.03
2023-03-30T23:24:42.937Z,97503.03
2023-03-30T23:29:45.117Z,97507.25
2023-03-30T23:34:47.181Z,97503.47
2023-03-30T23:39:49.253Z,97502.47
2023-03-30T23:44:51.818Z,97499.88
2023-03-30T23:49:53.679Z,97494.50
2023-03-30T23:54:55.527Z,97502.13
2023-03-30T23:59:57.398Z,97490.56
